createdAt,value
2023-02-23T00:00:40.493Z,958
2023-02-23T00:01:40.511Z,958.02
2023-02-23T00:03:40.795Z,958.01
2023-02-23T00:04:40.572Z,957.96
2023-02-23T00:05:40.497Z,958
2023-02-23T00:06:40.546Z,957.99
2023-02-23T00:07:40.505Z,958.02
2023-02-23T00:08:40.638Z,958
2023-02-23T00:09:40.514Z,958.01
2023-02-23T00:10:40.606Z,958
2023-02-23T00:11:40.521Z,957.93
2023-02-23T00:12:40.611Z,957.95
2023-02-23T00:13:40.518Z,957.99
2023-02-23T00:14:40.529Z,957.97
2023-02-23T00:15:40.519Z,957.95
2023-02-23T00:16:40.651Z,957.94
2023-02-23T00:17:40.539Z,957.95
2023-02-23T00:18:40.697Z,957.91
2023-02-23T00:19:40.594Z,957.92
2023-02-23T00:20:40.534Z,957.94
2023-02-23T00:21:40.659Z,957.92
2023-02-23T00:22:40.558Z,957.9
2023-02-23T00:23:40.570Z,957.91
2023-02-23T00:25:40.656Z,957.92
2023-02-23T00:26:40.582Z,957.93
2023-02-23T00:27:40.543Z,957.91
2023-02-23T00:28:40.601Z,957.92
2023-02-23T00:29:40.720Z,957.91
2023-02-23T00:30:40.568Z,957.92
2023-02-23T00:32:40.810Z,957.9
2023-02-23T00:33:40.587Z,957.91
2023-02-23T00:34:40.572Z,957.96
2023-02-23T00:36:40.662Z,957.94
2023-02-23T00:37:40.608Z,957.95
2023-02-23T00:39:40.583Z,957.94
2023-02-23T00:41:40.785Z,957.9
2023-02-23T00:42:40.670Z,957.93
2023-02-23T00:43:40.623Z,957.96
2023-02-23T00:44:40.634Z,957.92
2023-02-23T00:45:40.704Z,957.9
2023-02-23T00:48:40.823Z,957.89
2023-02-23T00:49:40.624Z,957.92
2023-02-23T00:50:40.640Z,957.87
2023-02-23T00:51:40.625Z,957.89
2023-02-23T00:52:40.642Z,957.87
2023-02-23T00:54:40.648Z,957.88
2023-02-23T00:55:40.649Z,957.84
2023-02-23T00:57:40.634Z,957.86
2023-02-23T00:58:40.649Z,957.85
2023-02-23T00:59:40.712Z,957.83
2023-02-23T01:00:40.801Z,957.84
2023-02-23T01:01:40.751Z,957.86
2023-02-23T01:03:40.666Z,957.87
2023-02-23T01:04:40.664Z,957.86
2023-02-23T01:05:40.765Z,957.87
2023-02-23T01:06:40.687Z,957.84
2023-02-23T01:07:40.663Z,957.82
2023-02-23T01:08:40.743Z,957.83
2023-02-23T01:10:40.748Z,957.8
2023-02-23T01:11:40.652Z,957.81
2023-02-23T01:12:40.722Z,957.8
2023-02-23T01:13:40.659Z,957.82
2023-02-23T01:15:40.923Z,957.78
2023-02-23T01:17:40.760Z,957.8
2023-02-23T01:18:40.744Z,957.78
2023-02-23T01:19:40.660Z,957.77
2023-02-23T01:21:40.808Z,957.8
2023-02-23T01:23:40.722Z,957.76
2023-02-23T01:24:40.704Z,957.77
2023-02-23T01:25:40.681Z,957.78
2023-02-23T01:28:40.779Z,957.75
2023-02-23T01:29:40.765Z,957.78
2023-02-23T01:30:40.776Z,957.77
2023-02-23T01:31:40.872Z,957.74
2023-02-23T01:33:40.739Z,957.71
2023-02-23T01:34:40.702Z,957.72
2023-02-23T01:36:40.824Z,957.7
2023-02-23T01:37:40.723Z,957.68
2023-02-23T01:38:40.727Z,957.7
2023-02-23T01:39:40.821Z,957.65
2023-02-23T01:40:40.721Z,957.66
2023-02-23T01:42:40.756Z,957.64
2023-02-23T01:43:40.753Z,957.61
2023-02-23T01:44:40.801Z,957.64
2023-02-23T01:45:40.738Z,957.65
2023-02-23T01:46:40.737Z,957.6
2023-02-23T01:47:40.724Z,957.61
2023-02-23T01:48:40.756Z,957.6
2023-02-23T01:49:40.730Z,957.59
2023-02-23T01:50:40.748Z,957.64
2023-02-23T01:51:40.844Z,957.59
2023-02-23T01:52:40.743Z,957.58
2023-02-23T01:53:40.882Z,957.6
2023-02-23T01:54:40.841Z,957.57
2023-02-23T01:56:40.872Z,957.55
2023-02-23T01:59:40.889Z,957.56
2023-02-23T16:42:25.208Z,956.68
2023-02-23T16:44:31.385Z,956.01
2023-02-23T16:45:25.135Z,955.85
2023-02-23T16:46:25.255Z,955.7
2023-02-23T16:47:25.137Z,955.6
2023-02-23T16:48:25.185Z,955.53
2023-02-23T16:49:25.156Z,955.46
2023-02-23T16:51:25.410Z,955.42
2023-02-23T16:52:25.280Z,955.41
2023-02-23T16:53:25.139Z,955.43
2023-02-23T16:54:25.160Z,955.44
2023-02-23T16:55:25.150Z,955.41
2023-02-23T16:56:25.296Z,955.44
2023-02-23T16:57:25.158Z,955.41
2023-02-23T16:59:25.193Z,955.44
2023-02-23T17:00:25.186Z,955.4
2023-02-23T17:01:25.197Z,955.42
2023-02-23T17:02:25.225Z,955.36
2023-02-23T17:03:25.171Z,955.39
2023-02-23T17:04:25.197Z,955.41
2023-02-23T17:05:25.177Z,955.46
2023-02-23T17:06:25.224Z,955.47
2023-02-23T17:07:25.178Z,955.52
2023-02-23T17:08:25.186Z,955.56
2023-02-23T17:09:25.228Z,955.58
2023-02-23T17:10:25.239Z,955.6
2023-02-23T17:12:25.298Z,955.62
2023-02-23T17:13:25.191Z,955.65
2023-02-23T17:14:25.329Z,955.64
2023-02-23T17:15:25.193Z,955.65
2023-02-23T17:16:25.401Z,955.6
2023-02-23T17:17:25.208Z,955.62
2023-02-23T17:19:25.976Z,955.61
2023-02-23T17:20:25.207Z,955.66
2023-02-23T17:22:25.294Z,955.7
2023-02-23T17:23:25.248Z,955.71
2023-02-23T17:25:25.217Z,955.73
2023-02-23T17:26:25.230Z,955.74
2023-02-23T17:27:25.346Z,955.75
2023-02-23T17:28:25.240Z,955.74
2023-02-23T17:29:25.231Z,955.77
2023-02-23T17:30:25.236Z,955.78
2023-02-23T17:32:25.387Z,955.74
2023-02-23T17:33:25.243Z,955.77
2023-02-23T17:34:25.218Z,955.73
2023-02-23T17:35:25.249Z,955.79
2023-02-23T17:36:25.248Z,955.76
2023-02-23T17:37:25.256Z,955.81
2023-02-23T17:38:25.253Z,955.78
2023-02-23T17:39:25.285Z,955.76
2023-02-23T17:40:25.264Z,955.75
2023-02-23T17:42:25.345Z,955.79
2023-02-23T17:43:25.280Z,955.78
2023-02-23T17:44:25.378Z,955.83
2023-02-23T17:45:25.290Z,955.8
2023-02-23T17:46:25.290Z,955.85
2023-02-23T17:47:25.296Z,955.89
2023-02-23T17:48:25.308Z,955.9
2023-02-23T17:49:25.277Z,955.91
2023-02-23T17:50:25.459Z,955.96
2023-02-23T17:52:25.397Z,955.95
2023-02-23T17:53:25.351Z,955.97
2023-02-23T17:54:25.379Z,956.01
2023-02-23T17:55:25.293Z,955.96
2023-02-23T17:56:25.301Z,955.98
2023-02-23T17:57:25.324Z,956.01
2023-02-23T17:58:25.298Z,956.02
2023-02-23T17:59:25.299Z,956.04
2023-02-23T18:01:25.410Z,956.05
2023-02-23T18:02:25.319Z,956.07
2023-02-23T18:03:25.307Z,956.1
2023-02-23T18:06:25.343Z,956.09
2023-02-23T18:07:25.332Z,956.04
2023-02-23T18:08:25.414Z,956.08
2023-02-23T18:10:25.333Z,956.1
2023-02-23T18:11:25.643Z,956.14
2023-02-23T18:13:25.325Z,956.16
2023-02-23T18:14:25.344Z,956.14
2023-02-23T18:15:25.341Z,956.15
2023-02-23T18:16:25.376Z,956.16
2023-02-23T18:17:25.353Z,956.18
2023-02-23T18:18:25.340Z,956.17
2023-02-23T18:19:25.351Z,956.2
2023-02-23T18:20:25.353Z,956.22
2023-02-23T18:21:25.786Z,956.19
2023-02-23T18:22:25.334Z,956.21
2023-02-23T18:23:25.367Z,956.24
2023-02-23T18:24:25.346Z,956.25
2023-02-23T18:26:25.403Z,956.29
2023-02-23T18:27:25.495Z,956.28
2023-02-23T18:28:25.363Z,956.25
2023-02-23T18:29:25.377Z,956.3
2023-02-23T18:31:25.896Z,956.31
2023-02-23T18:32:25.534Z,956.28
2023-02-23T18:33:25.420Z,956.3
2023-02-23T18:34:25.368Z,956.34
2023-02-23T18:35:25.395Z,956.36
2023-02-23T18:36:25.378Z,956.33
2023-02-23T18:37:25.717Z,956.35
2023-02-23T18:39:25.394Z,956.41
2023-02-23T18:40:25.411Z,956.46
2023-02-23T18:41:25.403Z,956.45
2023-02-23T18:42:25.412Z,956.44
2023-02-23T18:43:25.412Z,956.43
2023-02-23T18:45:25.442Z,956.45
2023-02-23T18:46:25.439Z,956.42
2023-02-23T18:51:25.473Z,956.4
2023-02-23T18:52:25.444Z,956.42
2023-02-23T18:53:25.445Z,956.44
2023-02-23T18:54:25.432Z,956.41
2023-02-23T18:55:25.497Z,956.45
2023-02-23T18:57:26.094Z,956.44
2023-02-23T18:58:25.525Z,956.42
2023-02-23T18:59:25.440Z,956.41
2023-02-23T19:00:25.525Z,956.46
2023-02-23T19:01:25.465Z,956.43
2023-02-23T19:02:25.470Z,956.45
2023-02-23T19:03:25.444Z,956.46
2023-02-23T19:04:25.458Z,956.45
2023-02-23T19:05:25.540Z,956.46
2023-02-23T19:06:25.487Z,956.5
2023-02-23T19:07:25.452Z,956.52
2023-02-23T19:08:25.495Z,956.51
2023-02-23T19:09:25.565Z,956.5
2023-02-23T19:10:25.450Z,956.52
2023-02-23T19:11:25.468Z,956.5
2023-02-23T19:13:25.615Z,956.48
2023-02-23T19:15:25.611Z,956.44
2023-02-23T19:16:25.589Z,956.43
2023-02-23T19:17:25.520Z,956.45
2023-02-23T19:19:25.719Z,956.44
2023-02-23T19:20:25.543Z,956.5
2023-02-23T19:21:25.486Z,956.48
2023-02-23T19:22:25.484Z,956.47
2023-02-23T19:23:25.515Z,956.48
2023-02-23T19:24:25.498Z,956.5
2023-02-23T19:26:25.516Z,956.52
2023-02-23T19:27:25.508Z,956.51
2023-02-23T19:28:25.579Z,956.54
2023-02-23T19:29:25.498Z,956.56
2023-02-23T19:30:25.607Z,956.57
2023-02-23T19:31:25.660Z,956.56
2023-02-23T19:32:25.820Z,956.54
2023-02-23T19:33:25.637Z,956.56
2023-02-23T19:34:25.582Z,956.52
2023-02-23T19:35:25.540Z,956.53
2023-02-23T19:36:25.517Z,956.56
2023-02-23T19:37:25.524Z,956.57
2023-02-23T19:38:25.673Z,956.53
2023-02-23T19:39:25.523Z,956.51
2023-02-23T19:40:25.627Z,956.54
2023-02-23T19:41:25.620Z,956.53
2023-02-23T19:43:25.633Z,956.55
2023-02-23T19:44:25.538Z,956.57
2023-02-23T19:45:25.573Z,956.59
2023-02-23T19:46:25.556Z,956.6
2023-02-23T19:47:25.603Z,956.58
2023-02-23T19:48:25.545Z,956.57
2023-02-23T19:50:25.639Z,956.55
2023-02-23T19:51:25.559Z,956.58
2023-02-23T19:52:25.559Z,956.54
2023-02-23T19:54:25.703Z,956.57
2023-02-23T19:55:25.591Z,956.59
2023-02-23T19:56:25.586Z,956.6
2023-02-23T19:58:25.569Z,956.59
2023-02-23T20:00:25.662Z,956.62
2023-02-23T20:01:25.587Z,956.59
2023-02-23T20:02:25.811Z,956.57
2023-02-23T20:03:25.659Z,956.61
2023-02-23T20:04:25.581Z,956.64
2023-02-23T20:05:25.771Z,956.61
2023-02-23T20:06:25.628Z,956.59
2023-02-23T20:07:25.615Z,956.62
2023-02-23T20:08:25.620Z,956.6
2023-02-23T20:09:25.623Z,956.58
2023-02-23T20:10:25.662Z,956.6
2023-02-23T20:11:25.631Z,956.64
2023-02-23T20:12:25.612Z,956.59
2023-02-23T20:13:25.601Z,956.61
2023-02-23T20:14:25.615Z,956.63
2023-02-23T20:15:25.623Z,956.58
2023-02-23T20:16:25.638Z,956.62
2023-02-23T20:17:25.641Z,956.61
2023-02-23T20:19:25.718Z,956.62
2023-02-23T20:20:25.738Z,956.63
2023-02-23T20:21:25.690Z,956.61
2023-02-23T20:22:25.674Z,956.62
2023-02-23T20:23:25.640Z,956.65
2023-02-23T20:24:25.644Z,956.68
2023-02-23T20:25:25.641Z,956.69
2023-02-23T20:26:25.698Z,956.67
2023-02-23T20:27:25.648Z,956.66
2023-02-23T20:29:25.806Z,956.65
2023-02-23T20:30:25.707Z,956.62
2023-02-23T20:31:26.079Z,956.67
2023-02-23T20:32:25.810Z,956.66
2023-02-23T20:33:25.651Z,956.64
2023-02-23T20:35:27.057Z,956.66
2023-02-23T20:37:25.729Z,956.7
2023-02-23T20:39:25.715Z,956.72
2023-02-23T20:40:25.783Z,956.69
2023-02-23T20:41:27.049Z,956.74
2023-02-23T20:42:25.766Z,956.73
2023-02-23T20:44:25.795Z,956.74
2023-02-23T20:45:25.732Z,956.7
2023-02-23T20:47:25.706Z,956.68
2023-02-23T20:48:25.719Z,956.71
2023-02-23T20:49:25.701Z,956.73
2023-02-23T20:50:25.725Z,956.72
2023-02-23T20:51:25.712Z,956.76
2023-02-23T20:52:25.703Z,956.75
2023-02-23T20:54:25.727Z,956.78
2023-02-23T20:55:25.782Z,956.81
2023-02-23T20:56:25.725Z,956.79
2023-02-23T20:57:25.718Z,956.78
2023-02-23T20:58:25.736Z,956.82
2023-02-23T20:59:25.753Z,956.79
2023-02-23T21:00:25.728Z,956.81
2023-02-23T21:01:26.322Z,956.82
2023-02-23T21:04:25.780Z,956.81
2023-02-23T21:05:25.778Z,956.79
2023-02-23T21:06:25.755Z,956.78
2023-02-23T21:07:25.745Z,956.77
2023-02-23T21:09:25.777Z,956.76
2023-02-23T21:10:25.766Z,956.74
2023-02-23T21:11:25.778Z,956.78
2023-02-23T21:12:25.785Z,956.76
2023-02-23T21:13:25.749Z,956.72
2023-02-23T21:14:25.806Z,956.77
2023-02-23T21:15:25.855Z,956.73
2023-02-23T21:16:25.779Z,956.78
2023-02-23T21:17:25.783Z,956.73
2023-02-23T21:18:25.846Z,956.75
2023-02-23T21:19:25.779Z,956.78
2023-02-23T21:20:25.791Z,956.76
2023-02-23T21:21:25.861Z,956.8
2023-02-23T21:22:25.784Z,956.78
2023-02-23T21:23:25.864Z,956.79
2023-02-23T21:24:25.853Z,956.84
2023-02-23T21:25:25.796Z,956.87
2023-02-23T21:26:25.793Z,956.85
2023-02-23T21:29:25.861Z,956.84
2023-02-23T21:30:25.807Z,956.9
2023-02-23T21:32:25.934Z,956.85
2023-02-23T21:33:25.877Z,956.88
2023-02-23T21:34:25.804Z,956.84
2023-02-23T21:35:25.815Z,956.85
2023-02-23T21:36:25.820Z,956.84
2023-02-23T21:37:25.804Z,956.86
2023-02-23T21:38:25.901Z,956.84
2023-02-23T21:39:25.870Z,956.85
2023-02-23T21:41:25.919Z,956.83
2023-02-23T21:42:25.890Z,956.84
2023-02-23T21:43:25.817Z,956.78
2023-02-23T21:44:25.835Z,956.76
2023-02-23T21:46:25.912Z,956.75
2023-02-23T21:47:25.858Z,956.73
2023-02-23T21:48:25.850Z,956.7
2023-02-23T21:49:25.848Z,956.73
2023-02-23T21:50:25.883Z,956.72
2023-02-23T21:51:25.837Z,956.71
2023-02-23T21:52:25.861Z,956.72
2023-02-23T21:53:25.849Z,956.71
2023-02-23T21:54:26.900Z,956.68
2023-02-23T21:55:25.993Z,956.67
2023-02-23T21:56:25.856Z,956.68
2023-02-23T21:58:25.939Z,956.64
2023-02-23T21:59:25.867Z,956.68
2023-02-23T22:00:25.876Z,956.65
2023-02-23T22:01:25.879Z,956.67
2023-02-23T22:02:25.998Z,956.66
2023-02-23T22:03:25.862Z,956.64
2023-02-23T22:06:25.949Z,956.6
2023-02-23T22:07:25.909Z,956.58
2023-02-23T22:08:25.877Z,956.57
2023-02-23T22:09:25.889Z,956.59
2023-02-23T22:10:25.963Z,956.54
2023-02-23T22:11:25.885Z,956.55
2023-02-23T22:12:25.923Z,956.53
2023-02-23T22:13:25.970Z,956.46
2023-02-23T22:14:27.032Z,956.48
2023-02-23T22:16:26.030Z,956.46
2023-02-23T22:17:30.070Z,956.43
2023-02-23T22:18:25.943Z,956.4
2023-02-23T22:19:25.955Z,956.42
2023-02-23T22:20:25.923Z,956.4
2023-02-23T22:21:25.913Z,956.43
2023-02-23T22:22:26.007Z,956.41
2023-02-23T22:23:25.948Z,956.44
2023-02-23T22:24:25.923Z,956.43
2023-02-23T22:25:25.917Z,956.42
2023-02-23T22:26:25.935Z,956.43
2023-02-23T22:27:25.946Z,956.4
2023-02-23T22:28:25.931Z,956.44
2023-02-23T22:29:25.998Z,956.39
2023-02-23T22:30:25.953Z,956.44
2023-02-23T22:31:25.999Z,956.47
2023-02-23T22:37:25.991Z,956.43
2023-02-23T22:38:25.968Z,956.44
2023-02-23T22:39:25.948Z,956.43
2023-02-23T22:40:25.949Z,956.44
2023-02-23T22:41:25.988Z,956.42
2023-02-23T22:42:25.976Z,956.4
2023-02-23T22:43:25.965Z,956.37
2023-02-23T22:44:25.961Z,956.38
2023-02-23T22:45:25.965Z,956.39
2023-02-23T22:46:26.054Z,956.4
2023-02-23T22:47:25.984Z,956.39
2023-02-23T22:48:25.992Z,956.37
2023-02-23T22:49:25.983Z,956.34
2023-02-23T22:50:25.982Z,956.38
2023-02-23T22:51:26.189Z,956.4
2023-02-23T22:52:25.990Z,956.35
2023-02-23T22:53:26.046Z,956.33
2023-02-23T22:54:26.039Z,956.34
2023-02-23T22:55:26.040Z,956.3
2023-02-23T22:56:25.997Z,956.27
2023-02-23T22:57:26.003Z,956.28
2023-02-23T22:58:25.995Z,956.27
2023-02-23T22:59:26.208Z,956.24
2023-02-23T23:00:26.009Z,956.22
2023-02-23T23:02:26.112Z,956.2
2023-02-23T23:03:26.100Z,956.18
2023-02-23T23:04:26.099Z,956.14
2023-02-23T23:05:26.032Z,956.18
2023-02-23T23:06:26.002Z,956.13
2023-02-23T23:07:26.043Z,956.14
2023-02-23T23:10:26.017Z,956.16
2023-02-23T23:11:26.070Z,956.17
2023-02-23T23:12:26.022Z,956.15
2023-02-23T23:13:26.038Z,956.12
2023-02-23T23:14:26.034Z,956.14
2023-02-23T23:15:26.029Z,956.13
2023-02-23T23:16:31.823Z,956.16
2023-02-23T23:18:26.055Z,956.1
2023-02-23T23:19:26.035Z,956.11
2023-02-23T23:20:26.147Z,956.1
2023-02-23T23:21:26.078Z,956.11
2023-02-23T23:22:26.063Z,956.1
2023-02-23T23:23:26.048Z,956.11
2023-02-23T23:24:26.050Z,956.07
2023-02-23T23:25:27.710Z,956.08
2023-02-23T23:26:26.097Z,956.11
2023-02-23T23:27:26.085Z,956.07
2023-02-23T23:28:26.056Z,956.05
2023-02-23T23:29:26.083Z,956.06
2023-02-23T23:30:26.287Z,956.01
2023-02-23T23:31:26.266Z,956
2023-02-23T23:32:26.248Z,956.03
2023-02-23T23:33:26.086Z,956.01
2023-02-23T23:34:26.076Z,955.97
2023-02-23T23:35:26.135Z,955.99
2023-02-23T23:36:26.084Z,956.01
2023-02-23T23:37:26.092Z,955.99
2023-02-23T23:38:26.277Z,956.01
2023-02-23T23:39:26.433Z,956.03
2023-02-23T23:40:26.108Z,955.99
2023-02-23T23:43:26.224Z,956.03
2023-02-23T23:44:26.131Z,956.01
2023-02-23T23:45:26.103Z,956
2023-02-23T23:47:26.146Z,955.99
2023-02-23T23:48:26.140Z,955.98
2023-02-23T23:49:26.142Z,955.94
2023-02-23T23:50:26.109Z,955.91
2023-02-23T23:51:26.140Z,955.95
2023-02-23T23:53:26.156Z,955.94
2023-02-23T23:54:26.150Z,955.92
2023-02-23T23:55:26.135Z,955.89
2023-02-23T23:56:26.151Z,955.87
2023-02-23T23:57:26.146Z,955.86
2023-02-23T23:58:26.144Z,955.85
2023-02-23T23:59:26.132Z,955.86
